createdAt,value
2024-04-21T00:00:18.539Z,0
2024-04-21T00:01:49.038Z,0
2024-04-21T00:03:19.554Z,0
2024-04-21T00:04:50.098Z,0
2024-04-21T00:07:35.707Z,0
2024-04-21T00:08:50.845Z,0
2024-04-21T00:10:21.360Z,0
2024-04-21T00:11:51.861Z,0
2024-04-21T00:13:22.396Z,0
2024-04-21T00:14:52.898Z,0
2024-04-21T00:16:23.395Z,0
2024-04-21T00:17:53.925Z,0
2024-04-21T00:19:24.430Z,0
2024-04-21T00:22:25.448Z,0
2024-04-21T00:23:40.586Z,0
2024-04-21T00:24:55.710Z,0
2024-04-21T00:26:26.222Z,0
2024-04-21T00:27:56.733Z,0
2024-04-21T00:29:27.267Z,0
2024-04-21T00:30:57.757Z,0
2024-04-21T00:32:28.287Z,0
2024-04-21T00:33:58.812Z,0
2024-04-21T00:35:29.300Z,0
2024-04-21T00:36:59.803Z,0
2024-04-21T00:38:30.344Z,0
2024-04-21T00:39:45.008Z,0
2024-04-21T00:41:00.152Z,0
2024-04-21T00:42:30.669Z,0
2024-04-21T00:44:01.168Z,0
2024-04-21T00:45:31.674Z,0
2024-04-21T00:47:02.186Z,0
2024-04-21T00:48:32.720Z,0
2024-04-21T00:50:03.228Z,0
2024-04-21T00:51:33.758Z,0
2024-04-21T00:53:04.273Z,0
2024-04-21T00:54:34.780Z,0
2024-04-21T00:55:49.892Z,0
2024-04-21T00:57:05.008Z,0
2024-04-21T00:58:35.551Z,0
2024-04-21T01:00:06.051Z,0
2024-04-21T01:01:36.566Z,0
2024-04-21T01:03:07.097Z,0
2024-04-21T01:06:08.112Z,0
2024-04-21T01:07:38.598Z,0
2024-04-21T01:09:09.129Z,0
2024-04-21T01:10:39.648Z,0
2024-04-21T01:11:54.756Z,0
2024-04-21T01:13:09.875Z,0
2024-04-21T01:16:10.929Z,0
2024-04-21T01:17:41.447Z,0
2024-04-21T01:20:42.473Z,0
2024-04-21T01:22:12.971Z,0
2024-04-21T01:25:22.192Z,0
2024-04-21T01:26:52.791Z,0
2024-04-21T01:28:07.473Z,0
2024-04-21T01:29:22.586Z,0
2024-04-21T01:30:53.109Z,0
2024-04-21T01:32:23.631Z,0
2024-04-21T01:33:54.136Z,0
2024-04-21T01:35:24.645Z,0
2024-04-21T01:36:55.150Z,0
2024-04-21T01:38:25.667Z,0
2024-04-21T01:39:56.213Z,0
2024-04-21T01:41:26.794Z,0
2024-04-21T01:43:05.400Z,0
2024-04-21T01:44:20.524Z,0
2024-04-21T01:45:35.644Z,0
2024-04-21T01:47:06.187Z,0
2024-04-21T01:48:36.681Z,0
2024-04-21T01:51:37.698Z,0
2024-04-21T01:54:38.744Z,0
2024-04-21T01:56:09.248Z,0
2024-04-21T01:57:39.762Z,0
2024-04-21T01:59:10.374Z,0
2024-04-21T02:00:25.487Z,0
2024-04-21T02:01:40.189Z,0
2024-04-21T02:03:10.680Z,0
2024-04-21T02:04:41.199Z,0
2024-04-21T02:06:11.705Z,0
2024-04-21T02:07:42.218Z,0
2024-04-21T02:09:12.747Z,0
2024-04-21T02:10:43.243Z,0
2024-04-21T02:12:13.775Z,0
2024-04-21T02:13:44.294Z,0
2024-04-21T02:15:14.871Z,0
2024-04-21T02:16:29.557Z,0
2024-04-21T02:19:15.194Z,0
2024-04-21T02:20:45.730Z,0
2024-04-21T02:22:16.222Z,0
2024-04-21T02:23:46.741Z,0
2024-04-21T02:25:17.257Z,0
2024-04-21T02:26:47.764Z,0
2024-04-21T02:28:18.000Z,0
2024-04-21T02:29:48.821Z,0
2024-04-21T02:32:34.445Z,0
2024-04-21T02:33:49.289Z,0
2024-04-21T02:35:27.929Z,0
2024-04-21T02:36:58.423Z,0
2024-04-21T02:38:28.934Z,0
2024-04-21T02:39:59.464Z,0
2024-04-21T02:41:29.973Z,0
2024-04-21T02:43:00.494Z,0
2024-04-21T02:44:30.981Z,0
2024-04-21T02:46:01.503Z,0
2024-04-21T02:47:32.040Z,0
2024-04-21T02:48:47.146Z,0
2024-04-21T02:50:02.293Z,0
2024-04-21T02:51:32.788Z,0
2024-04-21T02:53:03.293Z,0
2024-04-21T02:54:33.824Z,0
2024-04-21T02:56:04.407Z,0
2024-04-21T02:57:43.038Z,0
2024-04-21T02:59:13.536Z,0
2024-04-21T03:00:44.050Z,0
2024-04-21T03:02:14.583Z,0
2024-04-21T03:03:45.089Z,0
2024-04-21T03:05:00.221Z,0
2024-04-21T03:09:16.372Z,0
2024-04-21T03:10:46.871Z,0
2024-04-21T03:13:47.886Z,0
2024-04-21T03:16:57.120Z,0
2024-04-21T03:18:27.623Z,0
2024-04-21T03:19:58.209Z,0
2024-04-21T03:21:13.338Z,0
2024-04-21T03:22:28.056Z,0
2024-04-21T03:23:58.551Z,0
2024-04-21T03:25:29.056Z,0
2024-04-21T03:26:59.573Z,0
2024-04-21T03:28:30.108Z,0
2024-04-21T03:31:31.113Z,0
2024-04-21T03:33:01.621Z,0
2024-04-21T03:36:02.678Z,0
2024-04-21T03:37:17.722Z,0
2024-04-21T03:38:32.526Z,0
2024-04-21T03:40:11.148Z,0
2024-04-21T03:41:41.666Z,0
2024-04-21T03:43:12.208Z,0
2024-04-21T03:44:42.680Z,0
2024-04-21T03:46:13.206Z,0
2024-04-21T03:47:43.736Z,0
2024-04-21T03:49:14.232Z,0
2024-04-21T03:50:44.737Z,0
2024-04-21T03:52:15.265Z,0
2024-04-21T03:53:30.333Z,0
2024-04-21T03:54:45.136Z,0
2024-04-21T03:56:23.756Z,0
2024-04-21T03:57:54.296Z,0
2024-04-21T03:59:24.783Z,0
2024-04-21T04:00:55.317Z,0
2024-04-21T04:02:25.800Z,0
2024-04-21T04:03:56.312Z,0
2024-04-21T04:05:26.847Z,0
2024-04-21T04:06:57.344Z,0
2024-04-21T04:08:27.849Z,0
2024-04-21T04:09:42.652Z,0
2024-04-21T04:10:57.290Z,0
2024-04-21T04:12:27.841Z,0
2024-04-21T04:13:58.354Z,0
2024-04-21T04:15:28.854Z,0
2024-04-21T04:16:59.345Z,0
2024-04-21T04:18:29.884Z,0
2024-04-21T04:20:00.402Z,0
2024-04-21T04:21:30.899Z,0
2024-04-21T04:23:01.402Z,0
2024-04-21T04:24:31.932Z,0
2024-04-21T04:26:02.449Z,0
2024-04-21T04:27:17.524Z,0
2024-04-21T04:28:32.576Z,0
2024-04-21T04:30:03.092Z,0
2024-04-21T04:31:33.626Z,0
2024-04-21T04:33:04.109Z,0
2024-04-21T04:34:34.646Z,0
2024-04-21T04:36:05.157Z,0
2024-04-21T04:37:35.643Z,0
2024-04-21T04:39:06.188Z,0
2024-04-21T04:40:36.711Z,0
2024-04-21T04:42:07.191Z,0
2024-04-21T04:43:22.269Z,5
2024-04-21T04:44:37.361Z,5
2024-04-21T04:46:07.871Z,5
2024-04-21T04:47:38.363Z,5
2024-04-21T04:49:08.901Z,5
2024-04-21T04:50:39.417Z,5
2024-04-21T04:52:09.913Z,5
2024-04-21T04:53:40.442Z,5
2024-04-21T04:55:10.958Z,5
2024-04-21T04:56:41.473Z,5
2024-04-21T04:58:11.985Z,5
2024-04-21T04:59:26.600Z,5
2024-04-21T05:03:42.711Z,5
2024-04-21T05:05:13.209Z,5
2024-04-21T05:06:43.727Z,5
2024-04-21T05:08:14.253Z,5
2024-04-21T05:09:44.777Z,5
2024-04-21T05:11:15.299Z,5
2024-04-21T05:12:45.797Z,5
2024-04-21T05:14:16.308Z,5
2024-04-21T05:15:31.354Z,5
2024-04-21T05:16:46.446Z,5
2024-04-21T05:18:16.945Z,5
2024-04-21T05:19:47.480Z,5
2024-04-21T05:21:17.969Z,5
2024-04-21T05:22:48.519Z,11
2024-04-21T05:24:19.025Z,11
2024-04-21T05:27:20.050Z,11
2024-04-21T05:28:50.562Z,16
2024-04-21T05:30:21.056Z,16
2024-04-21T05:31:35.848Z,16
2024-04-21T05:32:50.925Z,22
2024-04-21T05:34:21.442Z,22
2024-04-21T05:35:51.948Z,22
2024-04-21T05:37:22.491Z,22
2024-04-21T05:38:53.001Z,22
2024-04-21T05:40:23.505Z,22
2024-04-21T05:41:54.008Z,22
2024-04-21T05:43:24.546Z,28
2024-04-21T05:44:55.038Z,28
2024-04-21T05:46:25.623Z,33
2024-04-21T05:48:02.833Z,33
2024-04-21T05:49:17.894Z,33
2024-04-21T05:50:48.418Z,33
2024-04-21T05:52:18.930Z,33
2024-04-21T05:53:49.448Z,33
2024-04-21T05:55:19.961Z,39
2024-04-21T05:56:50.475Z,56
2024-04-21T05:58:20.989Z,61
2024-04-21T05:59:51.506Z,56
2024-04-21T06:01:22.003Z,61
2024-04-21T06:02:52.528Z,67
2024-04-21T06:04:07.619Z,78
2024-04-21T06:05:22.677Z,84
2024-04-21T06:06:53.176Z,95
2024-04-21T06:08:23.722Z,106
2024-04-21T06:09:54.200Z,123
2024-04-21T06:11:24.716Z,140
2024-04-21T06:14:25.749Z,180
2024-04-21T06:17:26.785Z,208
2024-04-21T06:18:57.285Z,219
2024-04-21T06:20:12.361Z,219
2024-04-21T06:21:27.101Z,219
2024-04-21T06:23:05.693Z,219
2024-04-21T06:24:36.225Z,208
2024-04-21T06:26:06.723Z,202
2024-04-21T06:27:37.240Z,208
2024-04-21T06:30:38.292Z,180
2024-04-21T06:32:08.774Z,168
2024-04-21T06:33:39.304Z,191
2024-04-21T06:35:09.886Z,202
2024-04-21T06:36:24.532Z,191
2024-04-21T06:37:39.598Z,191
2024-04-21T06:39:10.120Z,213
2024-04-21T06:40:40.653Z,202
2024-04-21T06:42:11.136Z,196
2024-04-21T06:43:41.657Z,219
2024-04-21T06:45:12.164Z,241
2024-04-21T06:46:42.677Z,298
2024-04-21T06:48:13.187Z,348
2024-04-21T06:49:43.793Z,455
2024-04-21T06:51:22.397Z,523
2024-04-21T06:52:37.045Z,618
2024-04-21T06:53:52.119Z,618
2024-04-21T06:55:22.631Z,669
2024-04-21T06:56:53.160Z,624
2024-04-21T06:58:23.657Z,421
2024-04-21T06:59:54.175Z,658
2024-04-21T07:01:24.682Z,815
2024-04-21T07:04:25.700Z,759
2024-04-21T07:05:56.257Z,675
2024-04-21T07:07:26.731Z,556
2024-04-21T07:08:41.806Z,354
2024-04-21T07:09:56.901Z,292
2024-04-21T07:11:27.409Z,427
2024-04-21T07:12:57.911Z,562
2024-04-21T07:14:28.440Z,545
2024-04-21T07:15:58.934Z,613
2024-04-21T07:17:29.475Z,658
2024-04-21T07:18:59.000Z,765
2024-04-21T07:20:30.459Z,849
2024-04-21T07:22:00.972Z,1625
2024-04-21T07:23:31.485Z,900
2024-04-21T07:24:46.557Z,1186
2024-04-21T07:26:01.664Z,658
2024-04-21T07:27:32.177Z,568
2024-04-21T07:29:02.661Z,500
2024-04-21T07:30:33.196Z,466
2024-04-21T07:32:03.727Z,466
2024-04-21T07:33:34.205Z,466
2024-04-21T07:35:04.715Z,461
2024-04-21T07:36:35.229Z,466
2024-04-21T07:38:05.775Z,466
2024-04-21T07:39:36.247Z,450
2024-04-21T07:40:51.326Z,461
2024-04-21T07:42:06.430Z,466
2024-04-21T07:43:36.918Z,495
2024-04-21T07:45:07.417Z,495
2024-04-21T07:46:37.935Z,478
2024-04-21T07:48:08.490Z,466
2024-04-21T07:49:38.974Z,495
2024-04-21T07:51:09.488Z,483
2024-04-21T07:52:39.993Z,466
2024-04-21T07:54:10.526Z,450
2024-04-21T07:55:41.021Z,421
2024-04-21T07:56:56.099Z,523
2024-04-21T07:59:41.715Z,455
2024-04-21T08:02:42.691Z,376
2024-04-21T08:04:13.241Z,433
2024-04-21T08:05:43.727Z,421
2024-04-21T08:07:14.241Z,399
2024-04-21T08:08:44.756Z,500
2024-04-21T08:10:15.273Z,579
2024-04-21T08:11:45.812Z,568
2024-04-21T08:13:01.010Z,652
2024-04-21T08:14:16.074Z,646
2024-04-21T08:15:46.598Z,680
2024-04-21T08:17:17.065Z,489
2024-04-21T08:18:47.620Z,472
2024-04-21T08:20:18.105Z,450
2024-04-21T08:21:48.654Z,613
2024-04-21T08:23:19.151Z,506
2024-04-21T08:24:49.636Z,579
2024-04-21T08:26:20.149Z,978
2024-04-21T08:27:50.692Z,641
2024-04-21T08:29:05.769Z,815
2024-04-21T08:31:51.326Z,427
2024-04-21T08:33:21.864Z,444
2024-04-21T08:34:52.340Z,1147
2024-04-21T08:36:22.887Z,731
2024-04-21T08:37:53.398Z,1310
2024-04-21T08:39:23.927Z,1198
2024-04-21T08:40:54.409Z,438
2024-04-21T08:42:24.905Z,450
2024-04-21T08:43:55.420Z,399
2024-04-21T08:45:10.491Z,450
2024-04-21T08:46:25.560Z,540
2024-04-21T08:47:56.116Z,646
2024-04-21T08:50:57.113Z,1237
2024-04-21T08:52:27.660Z,1203
2024-04-21T08:55:28.675Z,562
2024-04-21T08:58:29.669Z,444
2024-04-21T09:00:00.174Z,433
2024-04-21T09:01:15.261Z,455
2024-04-21T09:02:30.089Z,433
2024-04-21T09:07:09.714Z,961
2024-04-21T09:08:40.225Z,939
2024-04-21T09:10:10.738Z,888
2024-04-21T09:11:41.249Z,956
2024-04-21T09:13:11.760Z,815
2024-04-21T09:14:42.294Z,540
2024-04-21T09:16:12.811Z,916
2024-04-21T09:17:27.850Z,725
2024-04-21T09:18:42.928Z,860
2024-04-21T09:21:43.972Z,770
2024-04-21T09:24:44.994Z,348
2024-04-21T09:26:15.514Z,337
2024-04-21T09:27:46.020Z,281
2024-04-21T09:29:16.504Z,225
2024-04-21T09:30:47.010Z,208
2024-04-21T09:32:17.522Z,247
2024-04-21T09:33:32.637Z,303
2024-04-21T09:34:47.703Z,360
2024-04-21T09:36:18.223Z,360
2024-04-21T09:37:48.700Z,320
2024-04-21T09:39:19.218Z,275
2024-04-21T09:40:49.732Z,298
2024-04-21T09:42:20.235Z,337
2024-04-21T09:45:21.297Z,635
2024-04-21T09:46:51.776Z,376
2024-04-21T09:48:22.289Z,416
2024-04-21T09:49:37.352Z,444
2024-04-21T09:50:52.437Z,421
2024-04-21T09:52:22.975Z,427
2024-04-21T09:53:53.468Z,556
2024-04-21T09:55:23.961Z,382
2024-04-21T09:58:33.216Z,354
2024-04-21T10:00:03.699Z,354
2024-04-21T10:01:34.244Z,348
2024-04-21T10:03:04.747Z,320
2024-04-21T10:04:35.263Z,309
2024-04-21T10:05:50.339Z,326
2024-04-21T10:07:05.376Z,298
2024-04-21T10:08:35.902Z,298
2024-04-21T10:10:06.435Z,326
2024-04-21T10:11:36.915Z,343
2024-04-21T10:13:07.428Z,365
2024-04-21T10:14:37.947Z,354
2024-04-21T10:17:39.009Z,326
2024-04-21T10:19:09.512Z,360
2024-04-21T10:20:40.002Z,618
2024-04-21T10:21:55.067Z,405
2024-04-21T10:23:10.134Z,697
2024-04-21T10:24:40.647Z,427
2024-04-21T10:29:12.189Z,315
2024-04-21T10:32:13.248Z,348
2024-04-21T10:33:43.801Z,348
2024-04-21T10:35:22.475Z,365
2024-04-21T10:36:52.971Z,315
2024-04-21T10:38:08.018Z,303
2024-04-21T10:39:23.095Z,331
2024-04-21T10:40:53.641Z,376
2024-04-21T10:42:24.146Z,393
2024-04-21T10:43:54.631Z,388
2024-04-21T10:46:55.697Z,646
2024-04-21T10:48:26.168Z,348
2024-04-21T10:49:56.706Z,348
2024-04-21T10:51:27.229Z,354
2024-04-21T10:52:57.697Z,348
2024-04-21T10:56:58.387Z,376
2024-04-21T10:58:28.915Z,590
2024-04-21T11:01:29.924Z,748
2024-04-21T11:03:00.439Z,376
2024-04-21T11:04:30.912Z,343
2024-04-21T11:06:01.461Z,309
2024-04-21T11:07:31.993Z,303
2024-04-21T11:09:02.460Z,585
2024-04-21T11:10:17.535Z,433
2024-04-21T11:13:03.115Z,371
2024-04-21T11:16:04.141Z,354
2024-04-21T11:17:34.683Z,343
2024-04-21T11:20:43.859Z,303
2024-04-21T11:22:14.416Z,337
2024-04-21T11:25:15.407Z,506
2024-04-21T11:26:30.468Z,810
2024-04-21T11:27:45.239Z,765
2024-04-21T11:29:23.812Z,765
2024-04-21T11:30:54.326Z,354
2024-04-21T11:32:24.840Z,343
2024-04-21T11:33:55.386Z,365
2024-04-21T11:35:25.893Z,281
2024-04-21T11:36:56.406Z,303
2024-04-21T11:39:57.446Z,365
2024-04-21T11:41:27.910Z,596
2024-04-21T11:42:42.978Z,320
2024-04-21T11:45:28.570Z,495
2024-04-21T11:46:59.076Z,562
2024-04-21T11:48:29.599Z,360
2024-04-21T11:50:00.109Z,568
2024-04-21T11:51:30.659Z,579
2024-04-21T11:54:31.686Z,354
2024-04-21T11:56:02.194Z,309
2024-04-21T11:58:47.737Z,298
2024-04-21T12:00:02.838Z,303
2024-04-21T12:01:33.351Z,315
2024-04-21T12:04:34.388Z,416
2024-04-21T12:06:04.892Z,281
2024-04-21T12:07:35.371Z,450
2024-04-21T12:09:05.878Z,472
2024-04-21T12:10:36.385Z,511
2024-04-21T12:13:37.468Z,528
2024-04-21T12:14:52.487Z,354
2024-04-21T12:16:07.596Z,286
2024-04-21T12:19:08.578Z,253
2024-04-21T12:20:39.131Z,241
2024-04-21T12:22:09.658Z,230
2024-04-21T12:23:40.160Z,236
2024-04-21T12:25:10.668Z,253
2024-04-21T12:26:41.194Z,421
2024-04-21T12:28:11.670Z,286
2024-04-21T12:29:42.176Z,303
2024-04-21T12:30:57.238Z,466
2024-04-21T12:32:12.355Z,455
2024-04-21T12:33:42.868Z,416
2024-04-21T12:35:13.343Z,264
2024-04-21T12:36:43.898Z,247
2024-04-21T12:38:14.401Z,236
2024-04-21T12:39:44.912Z,230
2024-04-21T12:41:15.382Z,230
2024-04-21T12:42:45.945Z,331
2024-04-21T12:44:16.528Z,393
2024-04-21T12:45:55.126Z,399
2024-04-21T12:47:10.184Z,399
2024-04-21T12:48:25.255Z,405
2024-04-21T12:49:55.820Z,410
2024-04-21T12:51:26.279Z,320
2024-04-21T12:55:57.830Z,253
2024-04-21T12:58:58.838Z,225
2024-04-21T13:01:59.881Z,258
2024-04-21T13:03:14.947Z,258
2024-04-21T13:04:30.010Z,258
2024-04-21T13:06:00.566Z,253
2024-04-21T13:07:31.086Z,236
2024-04-21T13:09:01.556Z,219
2024-04-21T13:10:32.059Z,208
2024-04-21T13:12:02.664Z,202
2024-04-21T13:13:41.315Z,208
2024-04-21T13:15:11.790Z,241
2024-04-21T13:16:42.342Z,365
2024-04-21T13:18:12.852Z,371
2024-04-21T13:19:27.886Z,376
2024-04-21T13:20:42.966Z,382
2024-04-21T13:22:13.517Z,382
2024-04-21T13:25:14.537Z,292
2024-04-21T13:26:45.048Z,275
2024-04-21T13:28:15.562Z,264
2024-04-21T13:29:46.049Z,241
2024-04-21T13:31:16.589Z,236
2024-04-21T13:32:47.102Z,230
2024-04-21T13:35:32.638Z,247
2024-04-21T13:36:47.765Z,213
2024-04-21T13:38:18.239Z,213
2024-04-21T13:41:19.251Z,241
2024-04-21T13:42:49.764Z,264
2024-04-21T13:44:20.288Z,376
2024-04-21T13:45:50.843Z,393
2024-04-21T13:47:21.347Z,393
2024-04-21T13:50:22.336Z,354
2024-04-21T13:51:37.399Z,213
2024-04-21T13:54:22.996Z,196
2024-04-21T13:55:53.488Z,196
2024-04-21T13:57:24.050Z,213
2024-04-21T13:58:54.522Z,315
2024-04-21T14:00:25.030Z,225
2024-04-21T14:01:55.582Z,326
2024-04-21T14:03:26.058Z,298
2024-04-21T14:04:56.565Z,298
2024-04-21T14:06:27.091Z,326
2024-04-21T14:07:42.161Z,303
2024-04-21T14:10:27.787Z,303
2024-04-21T14:11:58.296Z,241
2024-04-21T14:13:28.757Z,253
2024-04-21T14:14:59.312Z,371
2024-04-21T14:16:29.781Z,360
2024-04-21T14:18:00.300Z,270
2024-04-21T14:19:30.863Z,303
2024-04-21T14:21:01.364Z,315
2024-04-21T14:22:31.844Z,258
2024-04-21T14:23:46.914Z,241
2024-04-21T14:25:01.980Z,230
2024-04-21T14:26:32.609Z,219
2024-04-21T14:29:41.745Z,196
2024-04-21T14:31:12.211Z,191
2024-04-21T14:34:13.280Z,270
2024-04-21T14:35:43.795Z,196
2024-04-21T14:38:44.772Z,202
2024-04-21T14:39:59.849Z,208
2024-04-21T14:41:14.920Z,196
2024-04-21T14:42:45.430Z,191
2024-04-21T14:44:15.946Z,185
2024-04-21T14:45:46.498Z,191
2024-04-21T14:48:47.478Z,213
2024-04-21T14:50:18.034Z,219
2024-04-21T14:53:19.055Z,213
2024-04-21T14:54:49.584Z,208
2024-04-21T14:56:04.606Z,208
2024-04-21T14:58:50.216Z,196
2024-04-21T15:00:20.728Z,191
2024-04-21T15:01:51.332Z,191
2024-04-21T15:03:29.961Z,241
2024-04-21T15:05:00.485Z,236
2024-04-21T15:06:30.994Z,185
2024-04-21T15:08:01.488Z,180
2024-04-21T15:09:31.998Z,202
2024-04-21T15:11:02.514Z,185
2024-04-21T15:12:17.587Z,191
2024-04-21T15:13:32.654Z,185
2024-04-21T15:15:03.177Z,185
2024-04-21T15:18:04.185Z,180
2024-04-21T15:19:34.713Z,174
2024-04-21T15:21:05.226Z,168
2024-04-21T15:22:35.760Z,168
2024-04-21T15:24:06.254Z,163
2024-04-21T15:25:36.764Z,163
2024-04-21T15:27:07.262Z,157
2024-04-21T15:28:22.345Z,151
2024-04-21T15:29:37.433Z,151
2024-04-21T15:32:38.452Z,168
2024-04-21T15:34:08.968Z,157
2024-04-21T15:35:39.468Z,157
2024-04-21T15:37:09.971Z,163
2024-04-21T15:38:40.483Z,168
2024-04-21T15:40:10.995Z,174
2024-04-21T15:41:41.505Z,247
2024-04-21T15:43:12.020Z,247
2024-04-21T15:44:26.660Z,230
2024-04-21T15:47:12.236Z,247
2024-04-21T15:48:42.789Z,236
2024-04-21T15:51:43.802Z,202
2024-04-21T15:53:14.308Z,174
2024-04-21T15:54:44.824Z,118
2024-04-21T15:56:15.342Z,106
2024-04-21T15:59:16.351Z,106
2024-04-21T16:00:31.426Z,101
2024-04-21T16:01:46.481Z,106
2024-04-21T16:03:17.026Z,106
2024-04-21T16:06:18.055Z,118
2024-04-21T16:07:48.533Z,123
2024-04-21T16:09:19.085Z,123
2024-04-21T16:10:49.561Z,129
2024-04-21T16:12:20.099Z,129
2024-04-21T16:15:21.118Z,196
2024-04-21T16:16:36.167Z,196
2024-04-21T16:17:51.271Z,196
2024-04-21T16:19:21.750Z,196
2024-04-21T16:20:52.267Z,185
2024-04-21T16:22:22.813Z,180
2024-04-21T16:23:53.316Z,146
2024-04-21T16:25:23.893Z,163
2024-04-21T16:27:02.503Z,163
2024-04-21T16:28:33.023Z,151
2024-04-21T16:30:03.553Z,151
2024-04-21T16:31:34.055Z,151
2024-04-21T16:34:04.208Z,146
2024-04-21T16:35:34.700Z,135
2024-04-21T16:37:05.212Z,129
2024-04-21T16:38:35.750Z,135
2024-04-21T16:40:06.232Z,112
2024-04-21T16:41:36.760Z,101
2024-04-21T16:43:07.257Z,95
2024-04-21T16:44:37.802Z,90
2024-04-21T16:46:08.313Z,90
2024-04-21T16:47:38.901Z,90
2024-04-21T16:48:53.540Z,90
2024-04-21T16:50:08.591Z,90
2024-04-21T16:51:39.123Z,95
2024-04-21T16:53:09.649Z,90
2024-04-21T16:54:40.124Z,90
2024-04-21T16:56:10.661Z,95
2024-04-21T16:57:41.158Z,95
2024-04-21T16:59:11.678Z,95
2024-04-21T17:00:42.201Z,95
2024-04-21T17:03:43.231Z,101
2024-04-21T17:04:58.293Z,101
2024-04-21T17:06:13.382Z,101
2024-04-21T17:09:14.388Z,112
2024-04-21T17:10:45.001Z,112
2024-04-21T17:12:23.592Z,101
2024-04-21T17:13:54.103Z,84
2024-04-21T17:15:24.627Z,84
2024-04-21T17:16:55.127Z,73
2024-04-21T17:18:25.664Z,67
2024-04-21T17:19:56.175Z,61
2024-04-21T17:21:11.241Z,56
2024-04-21T17:23:56.825Z,50
2024-04-21T17:25:27.356Z,50
2024-04-21T17:28:28.375Z,45
2024-04-21T17:29:58.867Z,45
2024-04-21T17:31:29.376Z,45
2024-04-21T17:32:59.916Z,45
2024-04-21T17:34:30.441Z,50
2024-04-21T17:37:16.005Z,45
2024-04-21T17:38:31.075Z,45
2024-04-21T17:40:01.616Z,45
2024-04-21T17:43:02.605Z,39
2024-04-21T17:44:33.111Z,33
2024-04-21T17:47:34.156Z,33
2024-04-21T17:49:04.680Z,28
2024-04-21T17:50:35.191Z,28
2024-04-21T17:52:05.675Z,28
2024-04-21T17:53:20.765Z,22
2024-04-21T17:54:35.824Z,22
2024-04-21T17:56:06.371Z,22
2024-04-21T17:57:36.877Z,22
2024-04-21T17:59:07.373Z,16
2024-04-21T18:02:08.391Z,16
2024-04-21T18:03:38.903Z,16
2024-04-21T18:05:09.425Z,11
2024-04-21T18:06:39.960Z,11
2024-04-21T18:08:10.447Z,11
2024-04-21T18:09:25.528Z,11
2024-04-21T18:12:11.133Z,5
2024-04-21T18:13:41.643Z,5
2024-04-21T18:15:12.125Z,5
2024-04-21T18:16:42.669Z,5
2024-04-21T18:18:13.151Z,0
2024-04-21T18:19:43.663Z,0
2024-04-21T18:22:44.693Z,0
2024-04-21T18:24:15.207Z,0
2024-04-21T18:25:30.289Z,0
2024-04-21T18:26:45.351Z,0
2024-04-21T18:28:15.856Z,0
2024-04-21T18:29:46.372Z,0
2024-04-21T18:31:16.903Z,0
2024-04-21T18:32:47.405Z,0
2024-04-21T18:35:48.426Z,0
2024-04-21T18:37:18.953Z,0
2024-04-21T18:40:19.968Z,0
2024-04-21T18:41:35.039Z,0
2024-04-21T18:42:49.675Z,0
2024-04-21T18:45:50.703Z,0
2024-04-21T18:47:21.220Z,0
2024-04-21T18:48:51.740Z,0
2024-04-21T18:50:22.245Z,0
2024-04-21T18:51:52.757Z,0
2024-04-21T18:53:23.271Z,0
2024-04-21T18:54:53.787Z,0
2024-04-21T18:56:24.293Z,0
2024-04-21T19:00:25.076Z,0
2024-04-21T19:01:55.577Z,0
2024-04-21T19:03:26.090Z,0
2024-04-21T19:04:56.610Z,0
2024-04-21T19:09:28.138Z,0
2024-04-21T19:10:58.667Z,0
2024-04-21T19:13:44.296Z,0
2024-04-21T19:14:59.423Z,0
2024-04-21T19:16:29.932Z,0
2024-04-21T19:19:30.957Z,0
2024-04-21T19:21:01.476Z,0
2024-04-21T19:22:31.992Z,0
2024-04-21T19:24:02.493Z,0
2024-04-21T19:25:33.006Z,0
2024-04-21T19:27:03.524Z,0
2024-04-21T19:28:34.035Z,0
2024-04-21T19:31:04.299Z,0
2024-04-21T19:32:34.802Z,0
2024-04-21T19:34:05.323Z,0
2024-04-21T19:35:35.833Z,0
2024-04-21T19:37:06.333Z,0
2024-04-21T19:38:36.851Z,0
2024-04-21T19:43:08.392Z,0
2024-04-21T19:44:38.922Z,0
2024-04-21T19:45:54.025Z,0
2024-04-21T19:47:09.161Z,0
2024-04-21T19:48:39.678Z,0
2024-04-21T19:50:10.185Z,0
2024-04-21T19:53:11.209Z,0
2024-04-21T19:54:41.727Z,0
2024-04-21T19:57:42.749Z,0
2024-04-21T19:59:13.261Z,0
2024-04-21T20:01:58.894Z,0
2024-04-21T20:03:14.028Z,0
2024-04-21T20:04:44.548Z,0
2024-04-21T20:06:15.048Z,0
2024-04-21T20:07:45.560Z,0
2024-04-21T20:09:16.085Z,0
2024-04-21T20:10:46.584Z,0
2024-04-21T20:12:17.120Z,0
2024-04-21T20:13:47.611Z,0
2024-04-21T20:16:48.641Z,0
2024-04-21T20:18:03.778Z,0
2024-04-21T20:19:18.902Z,0
2024-04-21T20:22:19.920Z,0
2024-04-21T20:23:50.434Z,0
2024-04-21T20:26:51.467Z,0
2024-04-21T20:28:21.978Z,0
2024-04-21T20:29:52.495Z,0
2024-04-21T20:31:23.006Z,0
2024-04-21T20:32:53.523Z,0
2024-04-21T20:36:54.289Z,0
2024-04-21T20:38:24.792Z,0
2024-04-21T20:41:25.822Z,0
2024-04-21T20:42:56.338Z,0
2024-04-21T20:44:26.842Z,0
2024-04-21T20:45:57.354Z,0
2024-04-21T20:47:27.876Z,0
2024-04-21T20:50:13.519Z,0
2024-04-21T20:51:28.634Z,0
2024-04-21T20:52:59.144Z,0
2024-04-21T20:56:00.167Z,0
2024-04-21T20:59:01.220Z,0
2024-04-21T21:00:31.718Z,0
2024-04-21T21:02:02.245Z,0
2024-04-21T21:03:32.739Z,0
2024-04-21T21:05:03.246Z,0
2024-04-21T21:06:18.381Z,0
2024-04-21T21:07:33.064Z,0
2024-04-21T21:10:34.091Z,0
2024-04-21T21:12:04.624Z,0
2024-04-21T21:13:35.132Z,0
2024-04-21T21:15:05.632Z,0
2024-04-21T21:16:36.158Z,0
2024-04-21T21:19:37.180Z,0
2024-04-21T21:21:07.777Z,0
2024-04-21T21:22:22.901Z,0
2024-04-21T21:23:38.021Z,0
2024-04-21T21:25:08.547Z,0
2024-04-21T21:26:39.064Z,0
2024-04-21T21:28:09.568Z,0
2024-04-21T21:29:40.088Z,0
2024-04-21T21:31:10.582Z,0
2024-04-21T21:34:11.614Z,0
2024-04-21T21:35:42.129Z,0
2024-04-21T21:38:27.771Z,0
2024-04-21T21:39:42.914Z,0
2024-04-21T21:41:13.429Z,0
2024-04-21T21:42:43.919Z,0
2024-04-21T21:44:14.438Z,0
2024-04-21T21:45:44.939Z,0
2024-04-21T21:50:16.492Z,0
2024-04-21T21:53:17.509Z,0
2024-04-21T21:54:32.648Z,0
2024-04-21T21:55:47.787Z,0
2024-04-21T21:58:48.814Z,0
2024-04-21T22:00:19.316Z,0
2024-04-21T22:03:20.352Z,0
2024-04-21T22:04:50.851Z,0
2024-04-21T22:07:51.886Z,0
2024-04-21T22:09:22.404Z,0
2024-04-21T22:10:37.508Z,0
2024-04-21T22:11:52.648Z,0
2024-04-21T22:13:23.148Z,0
2024-04-21T22:14:53.686Z,0
2024-04-21T22:16:24.180Z,0
2024-04-21T22:17:54.699Z,0
2024-04-21T22:19:25.206Z,0
2024-04-21T22:22:26.238Z,0
2024-04-21T22:23:56.753Z,0
2024-04-21T22:26:42.389Z,0
2024-04-21T22:27:57.520Z,0
2024-04-21T22:29:28.041Z,0
2024-04-21T22:30:58.537Z,0
2024-04-21T22:32:29.059Z,0
2024-04-21T22:33:59.582Z,0
2024-04-21T22:37:00.597Z,0
2024-04-21T22:38:31.118Z,0
2024-04-21T22:41:32.127Z,0
2024-04-21T22:42:47.259Z,0
2024-04-21T22:44:02.373Z,0
2024-04-21T22:45:32.915Z,0
2024-04-21T22:47:03.409Z,0
2024-04-21T22:48:33.929Z,0
2024-04-21T22:51:34.954Z,0
2024-04-21T22:53:05.468Z,0
2024-04-21T22:56:06.478Z,0
2024-04-21T22:57:37.005Z,0
2024-04-21T23:01:37.768Z,0
2024-04-21T23:03:08.282Z,0
2024-04-21T23:06:09.322Z,0
2024-04-21T23:07:39.813Z,0
2024-04-21T23:09:10.332Z,0
2024-04-21T23:10:40.852Z,0
2024-04-21T23:12:11.368Z,0
2024-04-21T23:14:57.009Z,0
2024-04-21T23:16:12.120Z,0
2024-04-21T23:17:42.647Z,0
2024-04-21T23:19:13.153Z,0
2024-04-21T23:20:43.666Z,0
2024-04-21T23:22:14.197Z,0
2024-04-21T23:25:15.211Z,0
2024-04-21T23:26:45.730Z,0
2024-04-21T23:29:46.754Z,0
2024-04-21T23:31:01.436Z,0
2024-04-21T23:32:16.571Z,0
2024-04-21T23:35:17.602Z,0
2024-04-21T23:36:48.104Z,0
2024-04-21T23:38:18.608Z,0
2024-04-21T23:39:49.128Z,0
2024-04-21T23:41:19.657Z,0
2024-04-21T23:44:20.667Z,0
2024-04-21T23:45:51.211Z,0
2024-04-21T23:47:06.305Z,0
2024-04-21T23:49:51.960Z,0
2024-04-21T23:51:22.477Z,0
2024-04-21T23:55:54.026Z,0
2024-04-21T23:57:24.515Z,0
2024-04-21T23:58:55.046Z,0
